Aviation Digital Data Service (ADDS)

Output produced by METARs form (0435 UTC 07 May 2015)
found at http://www.aviationweather.gov/adds/metars/
 
KIPT 070433Z 00000KT 10SM BKN005 OVC046 14/12 A3023 RMK AO2 T01390122
KIPT 070401Z 00000KT 10SM BKN006 OVC065 14/12 A3023 RMK AO2 T01390122
KIPT 070354Z 00000KT 10SM SCT006 BKN055 OVC070 13/12 A3023 RMK AO2 SLP237 T01330122
KIPT 070352Z 00000KT 10SM SCT006 BKN055 OVC070 13/12 A3023 RMK AO2
KIPT 070254Z 00000KT 10SM BKN065 13/12 A3023 RMK AO2 SLP235 T01330122 50003
KIPT 070154Z 00000KT 10SM BKN038 OVC055 14/13 A3023 RMK AO2 SLP237 T01390128
KIPT 070054Z 00000KT 10SM BKN075 14/12 A3021 RMK AO2 SLP232 T01390122
KIPT 062354Z 00000KT 10SM SCT031 BKN060 BKN085 16/13 A3022 RMK AO2 SLP232 60000 T01560128 10172 20150 56003
KIPT 062308Z 00000KT 10SM SCT029 OVC065 17/13 A3021 RMK AO2 T01670128
KIPT 062254Z 24003KT 10SM BKN029 OVC065 16/13 A3022 RMK AO2 SLP233 T01610128
KIPT 062237Z 00000KT 10SM BKN028 OVC080 17/12 A3022 RMK AO2 T01670122
KIPT 062154Z 10003KT 10SM SCT070 OVC100 17/12 A3022 RMK AO2 RAB11E21 SLP233 P0000 T01670122
KIPT 062054Z 10003KT 10SM BKN030 OVC110 16/12 A3023 RMK AO2 RAB01E46 SLP235 P0000 60000 T01610117 58015
KIPT 061954Z 08004KT 10SM FEW018 OVC031 16/11 A3025 RMK AO2 SLP243 T01610111
KIPT 061854Z 11004KT 10SM FEW015 OVC033 16/12 A3026 RMK AO2 RAE23 SLP248 P0000 T01560122
KIPT 061754Z 06007KT 10SM -RA SCT015 OVC033 15/12 A3027 RMK AO2 RAE05B35 SLP251 P0000 60008 T01500117 10150 20133 58003
KIPT 061654Z 09007KT 10SM -RA FEW019 OVC036 14/12 A3029 RMK AO2 SLP256 P0001 T01440122
KIPT 061554Z 09008KT 10SM -RA SCT017 OVC036 14/12 A3029 RMK AO2 RAE18B46 SLP255 P0000 T01440122
KIPT 061543Z 07008KT 10SM SCT016 OVC038 14/12 A3029 RMK AO2 RAE18 P0000 T01440122
KIPT 061515Z 08008KT 10SM -RA OVC013 14/12 A3028 RMK AO2 P0000 T01440122
KIPT 061454Z 08006KT 10SM -RA FEW007 OVC015 14/13 A3028 RMK AO2 SLP254 P0002 60007 T01440128 58001
KIPT 061429Z 00000KT 9SM -RA SCT007 BKN026 OVC035 14/13 A3029 RMK AO2 P0002 T01440128
KIPT 061401Z 35004KT 6SM -RA BR FEW015 OVC036 14/12 A3030 RMK AO2 P0001 T01390122
KIPT 061354Z 01003KT 7SM -RA FEW005 OVC015 14/12 A3029 RMK AO2 SLP258 P0002 T01390122
KIPT 061329Z VRB03KT 10SM -RA FEW005 OVC015 14/12 A3030 RMK AO2 P0001 T01390122
KIPT 061301Z 00000KT 10SM -RA OVC019 14/12 A3030 RMK AO2 P0000 T01390122
KIPT 061254Z VRB03KT 8SM -RA FEW005 SCT015 OVC034 13/12 A3030 RMK AO2 SLP260 P0003 T01330122
KIPT 061154Z 00000KT 7SM -RA SCT014 OVC037 14/12 A3029 RMK AO2 RAE18B53 SLP255 P0000 60012 70012 T01390117 10161 20133 53012
KIPT 061125Z 00000KT 10SM SCT014 OVC037 13/12 A3028 RMK AO2 RAE18 P0000 T01330117
KIPT 061054Z 29003KT 10SM -RA OVC013 13/12 A3028 RMK AO2 SLP250 P0004 T01330122
KIPT 061032Z 00000KT 6SM RA BR BKN013 OVC036 13/12 A3027 RMK AO2 P0003 T01330122
KIPT 060954Z AUTO 28003KT 9SM -RA BKN034 OVC100 14/12 A3026 RMK AO2 SLP244 P0002 T01390122
KIPT 060854Z AUTO 30003KT 9SM -RA OVC100 14/13 A3025 RMK AO2 SLP242 P0005 60006 T01440128 53005
KIPT 060754Z AUTO 00000KT 7SM RA OVC075 16/12 A3025 RMK AO2 RAB35 SLP240 P0001 T01560122
KIPT 060654Z AUTO 00000KT 10SM BKN110 16/12 A3023 RMK AO2 RAB23E33 SLP236 P0000 T01560122
KIPT 060554Z AUTO 00000KT 10SM FEW050 SCT080 OVC100 16/14 A3024 RMK AO2 RAB24E54 SLP237 P0000 60000 T01610139 10211 20161 56002
KIPT 060454Z AUTO 35005KT 10SM BKN055 BKN100 17/13 A3024 RMK AO2 SLP238 T01720133 402500156
KIPT 060354Z AUTO 29003KT 10SM BKN070 BKN085 OVC110 18/16 A3024 RMK AO2 RAE16 SLP236 P0000 T01780156
KIPT 060254Z AUTO 27005KT 8SM -RA FEW047 OVC065 18/16 A3024 RMK AO2 RAB09 SLP238 P0000 60000 T01830161 51018
KIPT 060154Z 00000KT 10SM FEW050 BKN080 OVC090 18/15 A3023 RMK AO2 RAE05 SLP234 P0000 T01830150
KIPT 060054Z 00000KT 10SM -RA BKN070 BKN090 OVC110 20/14 A3021 RMK AO2 RAB30 SLP228 P0000 T02000139
KIPT 052354Z 23003KT 10SM FEW070 BKN090 OVC120 21/14 A3019 RMK AO2 RAB2258E12 SLP220 P0000 60000 T02110139 10250 20211 53005
KIPT 052254Z 26005KT 10SM SCT045 BKN050 OVC100 23/12 A3017 RMK AO2 SLP213 T02330117
KIPT 052154Z 00000KT 9SM BKN120 24/12 A3017 RMK AO2 RAE01B30E32 SLP214 P0000 T02390122
KIPT 052054Z 00000KT 10SM -RA OVC120 25/12 A3017 RMK AO2 RAB52 SLP214 P0000 60000 T02500122 58014
KIPT 051954Z 26004KT 10SM FEW070 BKN250 24/12 A3019 RMK AO2 SLP220 T02440117
KIPT 051854Z 28005KT 10SM FEW060 FEW085 SCT100 24/12 A3021 RMK AO2 SLP226 T02440117
KIPT 051754Z 25005KT 10SM FEW065 24/11 A3021 RMK AO2 SLP228 T02390111 10250 20200 58014
KIPT 051654Z 25003KT 10SM CLR 24/11 A3023 RMK AO2 SLP235 T02440111